Time;durP1;ratioP1;P1;durP2;ratioP2;P2;SDS_P1;SDS_P2;PMS_P1;PMS_P2;Temp;Humidity;BMP_temperature;BMP_pressure;BME280_temperature;BME280_humidity;BME280_pressure;Samples;Min_cycle;Max_cycle;Signal;HPM_P1;HPM_P2
2022/11/29 00:00:31;;;;;;;102.22;23.23;;;;;;;;;;5112758;28;20050;-66
2022/11/29 00:02:57;;;;;;;105.85;23.30;;;;;;;;;;5111466;28;20122;-66
2022/11/29 00:05:23;;;;;;;101.97;23.65;;;;;;;;;;5091965;28;20048;-66
2022/11/29 00:07:49;;;;;;;118.95;24.20;;;;;;;;;;5092415;28;20055;-66
2022/11/29 00:10:15;;;;;;;106.20;23.42;;;;;;;;;;5112322;28;20137;-66
2022/11/29 00:12:41;;;;;;;113.32;23.75;;;;;;;;;;5112120;28;20054;-66
2022/11/29 00:15:07;;;;;;;88.43;23.48;;;;;;;;;;5112508;28;20043;-66
2022/11/29 00:17:33;;;;;;;99.30;22.77;;;;;;;;;;5111949;28;20062;-66
2022/11/29 00:19:59;;;;;;;108.55;22.08;;;;;;;;;;5111947;28;20039;-66
2022/11/29 00:22:26;;;;;;;92.68;21.23;;;;;;;;;;5112505;28;20543;-66
2022/11/29 00:24:52;;;;;;;90.80;20.80;;;;;;;;;;5112025;28;20173;-66
2022/11/29 00:27:18;;;;;;;90.60;21.10;;;;;;;;;;5091665;28;20047;-66
2022/11/29 00:29:44;;;;;;;102.95;21.42;;;;;;;;;;5092011;28;20515;-66
2022/11/29 00:32:10;;;;;;;120.75;22.83;;;;;;;;;;5091843;28;20494;-66
2022/11/29 00:34:36;;;;;;;94.47;21.70;;;;;;;;;;5090336;28;20044;-66
2022/11/29 00:37:02;;;;;;;128.50;23.35;;;;;;;;;;5091567;28;20579;-66
2022/11/29 00:39:29;;;;;;;110.82;23.35;;;;;;;;;;5091904;28;20123;-66
2022/11/29 00:41:55;;;;;;;119.43;24.40;;;;;;;;;;5091491;28;20040;-66
2022/11/29 00:44:21;;;;;;;152.43;24.23;;;;;;;;;;5091612;28;20040;-66
2022/11/29 00:46:47;;;;;;;92.22;21.88;;;;;;;;;;5091458;28;20093;-66
2022/11/29 00:49:13;;;;;;;150.60;24.27;;;;;;;;;;5091477;28;20044;-66
2022/11/29 00:51:39;;;;;;;94.40;22.38;;;;;;;;;;5091137;28;20462;-66
2022/11/29 00:54:05;;;;;;;145.25;24.35;;;;;;;;;;5091817;28;20491;-66
2022/11/29 00:56:31;;;;;;;134.70;24.67;;;;;;;;;;5091755;28;20050;-66
2022/11/29 00:58:57;;;;;;;105.22;22.70;;;;;;;;;;5091294;28;20076;-66
2022/11/29 01:01:24;;;;;;;102.32;22.75;;;;;;;;;;5091495;28;20040;-66
2022/11/29 01:03:50;;;;;;;110.28;23.42;;;;;;;;;;5100307;28;20088;-66
2022/11/29 01:06:17;;;;;;;182.25;26.10;;;;;;;;;;5111182;28;20040;-66
2022/11/29 01:08:44;;;;;;;120.97;23.00;;;;;;;;;;5111858;28;20046;-66
2022/11/29 01:11:28;;;;;;;103.65;22.73;;;;;;;;;;5111547;28;20040;-66
2022/11/29 01:13:55;;;;;;;92.65;22.08;;;;;;;;;;5110225;28;20439;-66
2022/11/29 01:16:21;;;;;;;92.95;22.33;;;;;;;;;;5111642;28;20060;-67
2022/11/29 01:18:47;;;;;;;118.13;25.00;;;;;;;;;;5110601;28;20051;-67
2022/11/29 01:21:15;;;;;;;142.55;24.52;;;;;;;;;;5111274;28;20039;-67
2022/11/29 01:23:41;;;;;;;101.20;22.88;;;;;;;;;;5111945;28;20475;-67
2022/11/29 01:26:08;;;;;;;125.88;24.13;;;;;;;;;;5111582;28;20086;-67
2022/11/29 01:28:35;;;;;;;98.50;22.05;;;;;;;;;;5111488;28;20518;-67
2022/11/29 01:31:08;;;;;;;99.65;22.17;;;;;;;;;;5111380;28;20169;-67
2022/11/29 01:33:34;;;;;;;130.50;23.27;;;;;;;;;;5111456;28;20097;-67
2022/11/29 01:36:01;;;;;;;108.15;23.17;;;;;;;;;;5109893;28;20127;-67
2022/11/29 01:38:27;;;;;;;97.60;23.75;;;;;;;;;;5111679;28;20105;-67
2022/11/29 01:41:04;;;;;;;99.97;22.25;;;;;;;;;;5111491;28;20445;-67
2022/11/29 01:43:30;;;;;;;95.50;23.08;;;;;;;;;;5110915;28;20047;-67
2022/11/29 01:45:56;;;;;;;85.20;20.55;;;;;;;;;;5111438;28;20634;-67
2022/11/29 01:48:24;;;;;;;89.93;22.75;;;;;;;;;;5111570;28;20058;-67
2022/11/29 01:50:50;;;;;;;85.90;21.75;;;;;;;;;;5111025;28;20405;-67
2022/11/29 01:53:16;;;;;;;77.13;21.00;;;;;;;;;;5113578;28;20036;-67
2022/11/29 01:55:45;;;;;;;84.53;22.02;;;;;;;;;;5115424;28;20073;-67
2022/11/29 01:58:12;;;;;;;84.18;20.40;;;;;;;;;;5115023;28;20040;-67
2022/11/29 02:00:38;;;;;;;88.30;21.13;;;;;;;;;;5115079;28;20115;-67
2022/11/29 02:03:09;;;;;;;90.28;20.40;;;;;;;;;;5112991;28;20394;-67
2022/11/29 02:05:36;;;;;;;72.78;19.30;;;;;;;;;;5094385;28;20351;-67
2022/11/29 02:08:03;;;;;;;77.32;20.27;;;;;;;;;;5096118;28;20047;-67
2022/11/29 02:10:44;;;;;;;81.43;20.33;;;;;;;;;;5115079;28;20044;-67
2022/11/29 02:13:34;;;;;;;118.20;22.63;;;;;;;;;;5114877;28;20036;-67
2022/11/29 02:16:05;;;;;;;87.85;21.80;;;;;;;;;;5076475;28;20044;-67
2022/11/29 02:18:50;;;;;;;153.68;25.63;;;;;;;;;;5114513;28;20044;-67
2022/11/29 02:21:22;;;;;;;85.82;21.42;;;;;;;;;;5114414;28;20039;-67
2022/11/29 02:24:03;;;;;;;89.38;22.25;;;;;;;;;;5114761;28;20047;-67
2022/11/29 02:26:35;;;;;;;83.07;22.05;;;;;;;;;;5114141;28;20085;-67
2022/11/29 02:29:20;;;;;;;128.00;21.80;;;;;;;;;;5114779;28;20036;-67
2022/11/29 02:31:52;;;;;;;129.00;23.25;;;;;;;;;;5114616;28;20040;-67
2022/11/29 02:34:37;;;;;;;120.15;22.33;;;;;;;;;;5114393;28;20557;-67
2022/11/29 02:37:12;;;;;;;109.22;21.08;;;;;;;;;;5096252;28;20048;-67
2022/11/29 02:39:50;;;;;;;204.40;22.02;;;;;;;;;;5114387;28;20070;-67
2022/11/29 02:42:55;;;;;;;84.43;20.27;;;;;;;;;;5114035;28;20135;-67
2022/11/29 02:45:39;;;;;;;105.22;19.52;;;;;;;;;;5030929;28;20076;-67
2022/11/29 02:48:05;;;;;;;171.02;20.27;;;;;;;;;;5030601;28;20038;-67
2022/11/29 02:50:37;;;;;;;133.95;17.60;;;;;;;;;;5080406;28;20047;-67
2022/11/29 02:53:14;;;;;;;55.83;15.40;;;;;;;;;;5114076;28;20043;-67
2022/11/29 02:55:47;;;;;;;117.90;17.25;;;;;;;;;;5113854;28;20270;-67
2022/11/29 02:58:20;;;;;;;102.00;17.67;;;;;;;;;;5114214;28;20117;-67
2022/11/29 03:01:04;;;;;;;62.67;16.73;;;;;;;;;;5113561;28;20087;-67
2022/11/29 03:03:38;;;;;;;64.93;14.48;;;;;;;;;;5089278;28;20498;-67
2022/11/29 03:06:18;;;;;;;72.90;16.30;;;;;;;;;;5093091;28;20036;-67
2022/11/29 03:08:59;;;;;;;63.42;15.70;;;;;;;;;;5100902;28;20111;-67
2022/11/29 03:11:33;;;;;;;76.45;15.35;;;;;;;;;;5113364;28;20031;-67
2022/11/29 03:13:59;;;;;;;76.82;16.00;;;;;;;;;;5113876;28;20118;-67
2022/11/29 03:16:34;;;;;;;78.30;15.93;;;;;;;;;;5113515;28;20570;-67
2022/11/29 03:19:04;;;;;;;62.72;16.27;;;;;;;;;;5113417;28;20385;-67
2022/11/29 03:21:30;;;;;;;49.00;15.18;;;;;;;;;;5113729;28;20057;-67
2022/11/29 03:23:58;;;;;;;54.65;17.13;;;;;;;;;;5113569;28;20040;-67
2022/11/29 03:26:29;;;;;;;47.75;15.00;;;;;;;;;;5113128;28;20126;-67
2022/11/29 03:29:05;;;;;;;55.25;15.38;;;;;;;;;;5113349;28;20047;-67
2022/11/29 03:31:35;;;;;;;60.90;14.85;;;;;;;;;;5113413;28;20543;-67
2022/11/29 03:34:04;;;;;;;113.03;17.75;;;;;;;;;;5113054;28;20580;-67
2022/11/29 03:36:41;;;;;;;43.90;15.40;;;;;;;;;;5113373;28;20130;-67
2022/11/29 03:39:10;;;;;;;56.67;15.48;;;;;;;;;;5113204;28;20035;-67
2022/11/29 03:42:03;;;;;;;46.03;14.52;;;;;;;;;;5112979;28;20035;-67
2022/11/29 03:44:35;;;;;;;77.25;16.67;;;;;;;;;;5109614;28;20051;-67
2022/11/29 03:47:09;;;;;;;62.78;17.58;;;;;;;;;;5112841;28;20089;-67
2022/11/29 03:49:38;;;;;;;70.38;16.02;;;;;;;;;;5113173;28;20070;-67
2022/11/29 03:52:23;;;;;;;132.90;17.27;;;;;;;;;;5112761;28;20035;-67
2022/11/29 03:54:55;;;;;;;111.78;18.38;;;;;;;;;;5112597;28;20039;-67
2022/11/29 03:57:25;;;;;;;53.08;16.45;;;;;;;;;;5113049;28;20036;-67
2022/11/29 04:00:08;;;;;;;82.50;16.90;;;;;;;;;;5112757;28;20402;-67
2022/11/29 04:02:56;;;;;;;46.33;15.93;;;;;;;;;;5112538;28;20063;-67
2022/11/29 04:05:22;;;;;;;44.03;14.60;;;;;;;;;;5092064;28;20047;-67
2022/11/29 04:07:54;;;;;;;68.82;16.60;;;;;;;;;;5092524;28;20032;-67
2022/11/29 04:10:36;;;;;;;59.42;16.15;;;;;;;;;;5092122;28;20036;-67
2022/11/29 04:13:20;;;;;;;73.30;15.75;;;;;;;;;;5092354;28;20095;-67
2022/11/29 04:16:03;;;;;;;74.68;16.38;;;;;;;;;;5091869;28;20036;-67
2022/11/29 04:18:29;;;;;;;88.97;16.23;;;;;;;;;;5091898;28;20406;-67
2022/11/29 04:21:22;;;;;;;54.55;15.82;;;;;;;;;;5092004;28;20039;-67
2022/11/29 04:23:57;;;;;;;153.48;18.15;;;;;;;;;;5092143;28;20063;-67
2022/11/29 04:26:38;;;;;;;53.13;15.15;;;;;;;;;;5104526;28;20040;-67
2022/11/29 04:29:07;;;;;;;55.33;14.95;;;;;;;;;;5112453;28;20036;-67
2022/11/29 04:31:52;;;;;;;67.97;16.15;;;;;;;;;;5111612;28;20097;-67
2022/11/29 04:34:33;;;;;;;89.50;17.77;;;;;;;;;;5112291;28;20075;-67
2022/11/29 04:37:14;;;;;;;106.05;16.52;;;;;;;;;;5112330;28;20048;-67
2022/11/29 04:39:49;;;;;;;101.57;16.83;;;;;;;;;;5111915;28;20402;-67
2022/11/29 04:42:24;;;;;;;91.70;16.52;;;;;;;;;;5112280;28;20123;-67
2022/11/29 04:44:53;;;;;;;73.85;16.15;;;;;;;;;;5112226;28;20040;-67
2022/11/29 04:47:55;;;;;;;114.63;17.70;;;;;;;;;;5112093;28;20039;-67
2022/11/29 04:50:27;;;;;;;97.63;17.85;;;;;;;;;;5028808;28;20055;-67
2022/11/29 04:53:08;;;;;;;87.15;16.58;;;;;;;;;;5098794;28;20090;-67
2022/11/29 04:55:37;;;;;;;110.80;16.58;;;;;;;;;;5111403;28;20055;-67
2022/11/29 04:58:03;;;;;;;114.45;17.67;;;;;;;;;;5112137;28;20082;-67
2022/11/29 05:00:32;;;;;;;98.90;15.60;;;;;;;;;;5111862;28;20085;-67
2022/11/29 05:02:59;;;;;;;60.47;14.93;;;;;;;;;;5110370;28;20050;-67
2022/11/29 05:05:55;;;;;;;82.15;14.45;;;;;;;;;;5091482;28;20044;-67
2022/11/29 05:08:24;;;;;;;56.47;15.07;;;;;;;;;;5077717;28;20105;-67
2022/11/29 05:11:11;;;;;;;64.32;14.77;;;;;;;;;;5111977;28;20528;-67
2022/11/29 05:13:49;;;;;;;79.45;15.30;;;;;;;;;;5111640;28;20071;-67
2022/11/29 05:16:15;;;;;;;132.55;17.05;;;;;;;;;;5111359;28;20101;-67
2022/11/29 05:18:48;;;;;;;125.20;16.88;;;;;;;;;;5111878;28;20464;-67
2022/11/29 05:21:33;;;;;;;119.82;17.10;;;;;;;;;;5111411;28;20048;-67
2022/11/29 05:24:08;;;;;;;90.47;15.77;;;;;;;;;;5111294;28;20039;-67
2022/11/29 05:26:46;;;;;;;86.15;16.33;;;;;;;;;;5111594;28;20043;-67
2022/11/29 05:29:17;;;;;;;115.88;15.95;;;;;;;;;;5115407;28;20046;-67
2022/11/29 05:31:57;;;;;;;69.43;15.48;;;;;;;;;;5114076;28;20489;-67
2022/11/29 05:34:46;;;;;;;135.10;17.40;;;;;;;;;;5115794;28;20542;-67
2022/11/29 05:37:37;;;;;;;163.38;18.08;;;;;;;;;;5076899;28;20051;-67
2022/11/29 05:40:17;;;;;;;108.88;16.30;;;;;;;;;;5114785;28;20386;-67
2022/11/29 05:42:46;;;;;;;132.75;17.10;;;;;;;;;;5115542;28;20036;-67
2022/11/29 05:45:27;;;;;;;69.00;16.15;;;;;;;;;;5115541;28;20050;-67
2022/11/29 05:48:19;;;;;;;48.17;14.57;;;;;;;;;;5115352;28;20052;-67
2022/11/29 05:50:48;;;;;;;130.70;17.55;;;;;;;;;;5111380;28;20386;-67
2022/11/29 05:53:19;;;;;;;164.30;18.85;;;;;;;;;;5114668;28;20067;-67
2022/11/29 05:56:04;;;;;;;73.97;15.90;;;;;;;;;;5114868;28;20044;-67
2022/11/29 05:58:30;;;;;;;189.70;23.08;;;;;;;;;;5114829;28;20107;-67
2022/11/29 06:01:03;;;;;;;97.40;19.10;;;;;;;;;;5114520;28;20136;-67
2022/11/29 06:03:38;;;;;;;66.68;15.75;;;;;;;;;;5114950;28;20067;-67
2022/11/29 06:06:15;;;;;;;94.72;19.70;;;;;;;;;;5114604;28;20079;-66
2022/11/29 06:08:54;;;;;;;53.72;15.55;;;;;;;;;;5102448;28;20039;-66
2022/11/29 06:11:35;;;;;;;93.30;15.57;;;;;;;;;;5113459;28;20114;-66
2022/11/29 06:14:04;;;;;;;85.78;16.15;;;;;;;;;;5114648;28;20100;-66
2022/11/29 06:16:33;;;;;;;118.28;17.05;;;;;;;;;;5092855;28;20089;-66
2022/11/29 06:19:19;;;;;;;66.47;16.50;;;;;;;;;;5100750;28;20134;-66
2022/11/29 06:22:10;;;;;;;86.90;16.42;;;;;;;;;;5114423;28;20051;-66
2022/11/29 06:24:36;;;;;;;56.40;15.10;;;;;;;;;;5093116;28;20040;-66
2022/11/29 06:27:18;;;;;;;94.82;16.60;;;;;;;;;;5105107;28;20557;-66
2022/11/29 06:29:50;;;;;;;133.82;17.38;;;;;;;;;;5114232;28;20043;-66
2022/11/29 06:32:39;;;;;;;64.65;14.35;;;;;;;;;;5113948;28;20089;-66
2022/11/29 06:35:11;;;;;;;54.60;13.70;;;;;;;;;;5113752;28;20476;-66
2022/11/29 06:37:37;;;;;;;42.47;13.23;;;;;;;;;;5113856;28;20105;-66
2022/11/29 06:40:04;;;;;;;50.83;13.68;;;;;;;;;;5112987;28;20465;-65
2022/11/29 06:42:30;;;;;;;76.80;14.07;;;;;;;;;;5113353;28;20039;-67
2022/11/29 06:44:56;;;;;;;93.93;16.17;;;;;;;;;;5113392;28;20427;-67
2022/11/29 06:47:36;;;;;;;91.53;14.63;;;;;;;;;;5113782;28;20035;-67
2022/11/29 06:50:21;;;;;;;47.95;13.90;;;;;;;;;;5113832;28;20047;-67
2022/11/29 06:52:58;;;;;;;55.17;13.88;;;;;;;;;;5093490;28;20047;-67
2022/11/29 06:55:33;;;;;;;68.50;14.80;;;;;;;;;;5104038;28;20044;-66
2022/11/29 06:58:13;;;;;;;57.72;14.05;;;;;;;;;;5113930;27;20071;-66
2022/11/29 07:00:39;;;;;;;71.35;14.10;;;;;;;;;;5113234;28;20048;-66
2022/11/29 07:03:15;;;;;;;91.95;14.63;;;;;;;;;;5113569;28;20039;-66
2022/11/29 07:05:41;;;;;;;62.55;14.32;;;;;;;;;;5113760;28;20409;-66
2022/11/29 07:08:14;;;;;;;57.58;13.73;;;;;;;;;;5112965;28;20088;-66
2022/11/29 07:10:41;;;;;;;76.57;15.88;;;;;;;;;;5113330;28;20466;-66
2022/11/29 07:13:07;;;;;;;67.07;14.60;;;;;;;;;;5112486;28;20035;-66
2022/11/29 07:15:36;;;;;;;44.65;13.32;;;;;;;;;;5112002;28;20103;-66
2022/11/29 07:18:21;;;;;;;98.78;14.93;;;;;;;;;;5110720;28;20402;-65
2022/11/29 07:21:06;;;;;;;87.30;14.88;;;;;;;;;;5112270;28;20036;-64
2022/11/29 07:23:32;;;;;;;58.70;13.90;;;;;;;;;;5112299;28;20043;-64
2022/11/29 07:26:04;;;;;;;68.88;13.98;;;;;;;;;;5096397;28;20358;-64
2022/11/29 07:28:39;;;;;;;67.93;14.40;;;;;;;;;;5109583;28;20039;-64
2022/11/29 07:31:28;;;;;;;52.80;13.73;;;;;;;;;;5110656;28;20051;-64
2022/11/29 07:34:06;;;;;;;43.42;13.57;;;;;;;;;;5110678;28;20036;-63
2022/11/29 07:36:44;;;;;;;68.40;14.52;;;;;;;;;;5095376;28;20039;-64
2022/11/29 07:39:30;;;;;;;42.05;13.98;;;;;;;;;;5111370;28;20551;-64
2022/11/29 07:41:59;;;;;;;57.13;13.98;;;;;;;;;;5110891;28;20045;-64
2022/11/29 07:44:33;;;;;;;83.07;14.60;;;;;;;;;;5110837;28;20074;-63
2022/11/29 07:46:59;;;;;;;70.78;14.85;;;;;;;;;;5111041;28;20040;-64
2022/11/29 07:49:25;;;;;;;80.80;16.98;;;;;;;;;;5111570;28;20058;-64
2022/11/29 07:51:53;;;;;;;70.95;14.77;;;;;;;;;;5110344;28;20034;-64
2022/11/29 07:54:19;;;;;;;42.88;12.70;;;;;;;;;;5110503;28;20039;-64
2022/11/29 07:56:45;;;;;;;85.32;15.00;;;;;;;;;;5111357;28;20054;-64
2022/11/29 07:59:11;;;;;;;46.17;12.95;;;;;;;;;;5109462;28;20039;-64
2022/11/29 08:01:38;;;;;;;39.92;13.23;;;;;;;;;;5101301;28;20055;-64
2022/11/29 08:04:04;;;;;;;36.63;13.02;;;;;;;;;;5098914;28;20521;-66
2022/11/29 08:06:30;;;;;;;40.83;13.93;;;;;;;;;;5098385;28;20084;-62
2022/11/29 08:08:57;;;;;;;61.92;14.45;;;;;;;;;;5097946;28;20522;-63
2022/11/29 08:11:23;;;;;;;44.67;13.88;;;;;;;;;;5093877;28;21328;-63
2022/11/29 08:13:49;;;;;;;50.65;15.63;;;;;;;;;;5103380;28;20031;-62
2022/11/29 08:16:18;;;;;;;78.90;15.02;;;;;;;;;;5108351;28;20077;-62
2022/11/29 08:18:44;;;;;;;44.70;13.65;;;;;;;;;;5107836;28;20509;-61
2022/11/29 08:21:10;;;;;;;59.95;14.75;;;;;;;;;;5104207;28;20040;-62
2022/11/29 08:23:36;;;;;;;46.42;14.20;;;;;;;;;;5101008;28;20066;-64
2022/11/29 08:26:03;;;;;;;57.03;14.50;;;;;;;;;;5094306;28;20044;-63
2022/11/29 08:28:29;;;;;;;30.27;13.32;;;;;;;;;;5105893;28;20043;-63
2022/11/29 08:31:01;;;;;;;32.42;14.15;;;;;;;;;;5108530;28;20028;-62
2022/11/29 08:33:27;;;;;;;;;;;;;;;;;;5092556;28;20032;-63
2022/11/29 08:35:53;;;;;;;28.08;13.05;;;;;;;;;;5099583;28;20405;-62
2022/11/29 08:38:19;;;;;;;36.35;13.35;;;;;;;;;;5108799;28;20442;-62
2022/11/29 08:40:45;;;;;;;25.92;11.95;;;;;;;;;;5101174;28;20134;-62
2022/11/29 08:43:11;;;;;;;29.13;12.70;;;;;;;;;;5103893;28;20073;-62
2022/11/29 08:45:37;;;;;;;30.38;12.50;;;;;;;;;;5108096;28;20027;-63
2022/11/29 08:48:04;;;;;;;33.95;13.60;;;;;;;;;;5109883;28;20076;-62
2022/11/29 08:50:30;;;;;;;30.08;13.05;;;;;;;;;;5095230;28;20055;-61
2022/11/29 08:55:45;;;;;;;29.10;12.75;;;;;;;;;;5102955;28;20047;-62
2022/11/29 08:58:13;;;;;;;32.28;13.02;;;;;;;;;;5109239;28;20385;-63
2022/11/29 09:00:39;;;;;;;29.13;12.50;;;;;;;;;;5106153;28;20043;-63
2022/11/29 09:05:51;;;;;;;26.25;12.23;;;;;;;;;;5093084;28;20044;-62
2022/11/29 09:08:17;;;;;;;30.33;12.48;;;;;;;;;;5089668;28;20039;-62
2022/11/29 09:10:43;;;;;;;33.58;12.88;;;;;;;;;;5092402;28;20078;-62
2022/11/29 09:13:10;;;;;;;30.70;12.95;;;;;;;;;;5103910;28;20047;-62
2022/11/29 09:15:36;;;;;;;28.13;12.38;;;;;;;;;;5094771;28;20072;-63
2022/11/29 09:18:04;;;;;;;25.10;12.13;;;;;;;;;;5093778;28;20064;-61
2022/11/29 09:20:30;;;;;;;28.60;12.75;;;;;;;;;;5098055;28;20055;-62
2022/11/29 09:22:58;;;;;;;29.38;12.68;;;;;;;;;;5095159;28;20070;-62
2022/11/29 09:25:24;;;;;;;30.77;12.35;;;;;;;;;;5099411;28;20478;-63
2022/11/29 09:27:50;;;;;;;24.52;12.38;;;;;;;;;;5099409;28;20065;-62
2022/11/29 09:30:17;;;;;;;28.55;12.10;;;;;;;;;;5107608;28;20038;-63
2022/11/29 09:32:45;;;;;;;27.67;12.55;;;;;;;;;;5106129;28;20066;-62
2022/11/29 09:35:11;;;;;;;29.90;12.23;;;;;;;;;;5090412;28;20048;-63
2022/11/29 09:37:37;;;;;;;27.13;12.40;;;;;;;;;;5102961;28;20711;-62
2022/11/29 09:40:05;;;;;;;28.20;12.48;;;;;;;;;;5094933;28;20040;-62
2022/11/29 09:42:44;;;;;;;28.52;12.43;;;;;;;;;;5098410;28;20036;-63
2022/11/29 09:45:13;;;;;;;27.85;11.80;;;;;;;;;;5093786;28;20085;-63
2022/11/29 09:47:56;;;;;;;26.65;12.10;;;;;;;;;;5086342;28;20040;-63
2022/11/29 09:50:31;;;;;;;33.03;12.95;;;;;;;;;;5097226;28;20046;-63
2022/11/29 09:53:09;;;;;;;28.83;13.50;;;;;;;;;;5100949;28;20078;-63
2022/11/29 09:55:46;;;;;;;27.63;12.57;;;;;;;;;;5109458;28;20043;-63
2022/11/29 09:58:17;;;;;;;28.23;12.05;;;;;;;;;;5105503;28;20043;-63
2022/11/29 10:00:50;;;;;;;24.73;12.23;;;;;;;;;;5105953;28;20040;-64
2022/11/29 10:03:22;;;;;;;25.30;11.57;;;;;;;;;;5088175;28;20035;-64
2022/11/29 10:05:50;;;;;;;26.08;11.25;;;;;;;;;;5104251;28;20044;-63
2022/11/29 10:08:38;;;;;;;39.30;12.05;;;;;;;;;;5089093;28;20102;-64
2022/11/29 10:11:24;;;;;;;29.92;11.93;;;;;;;;;;5085921;28;20054;-63
2022/11/29 10:13:53;;;;;;;22.90;10.55;;;;;;;;;;5096820;28;20141;-63
2022/11/29 10:16:31;;;;;;;21.90;11.68;;;;;;;;;;5102343;28;20130;-64
2022/11/29 10:19:24;;;;;;;23.65;10.48;;;;;;;;;;5086792;28;20517;-64
2022/11/29 10:21:56;;;;;;;31.33;11.80;;;;;;;;;;5095879;28;20134;-63
2022/11/29 10:24:22;;;;;;;25.05;11.57;;;;;;;;;;5102912;28;20466;-64
2022/11/29 10:26:48;;;;;;;23.33;10.82;;;;;;;;;;5094068;28;20122;-64
2022/11/29 10:29:15;;;;;;;21.45;10.13;;;;;;;;;;5108098;28;20039;-64
2022/11/29 10:31:48;;;;;;;28.00;10.98;;;;;;;;;;5105165;28;20511;-64
2022/11/29 10:34:14;;;;;;;;;;;;;;;;;;5092986;28;20076;-63
2022/11/29 10:36:42;;;;;;;25.67;10.88;;;;;;;;;;5090376;28;19923;-63
2022/11/29 10:39:36;;;;;;;23.67;10.10;;;;;;;;;;5105230;28;20046;-64
2022/11/29 10:42:02;;;;;;;25.13;10.48;;;;;;;;;;5058958;28;20055;-65
2022/11/29 10:44:31;;;;;;;22.45;10.18;;;;;;;;;;5098212;28;20043;-65
2022/11/29 10:46:58;;;;;;;18.13;9.68;;;;;;;;;;5099032;28;20120;-64
2022/11/29 10:49:26;;;;;;;28.25;10.30;;;;;;;;;;5100908;28;20032;-63
2022/11/29 10:51:52;;;;;;;22.05;10.45;;;;;;;;;;5102963;28;20047;-63
2022/11/29 10:54:31;;;;;;;24.55;9.95;;;;;;;;;;5102027;28;20114;-62
2022/11/29 10:56:59;;;;;;;22.30;10.00;;;;;;;;;;5101433;28;20044;-64
2022/11/29 10:59:26;;;;;;;21.08;9.73;;;;;;;;;;5106163;28;20039;-63
2022/11/29 11:01:53;;;;;;;20.42;9.05;;;;;;;;;;5102407;28;20066;-65
2022/11/29 11:04:21;;;;;;;24.08;9.48;;;;;;;;;;5109323;28;20043;-64
2022/11/29 11:06:50;;;;;;;17.88;8.50;;;;;;;;;;5101748;28;20055;-64
2022/11/29 11:09:16;;;;;;;22.02;10.68;;;;;;;;;;5102856;28;20082;-64
2022/11/29 11:11:49;;;;;;;18.90;8.50;;;;;;;;;;5099587;28;20043;-65
2022/11/29 11:14:25;;;;;;;14.52;7.93;;;;;;;;;;5110726;28;20042;-65
2022/11/29 11:16:52;;;;;;;26.60;9.95;;;;;;;;;;5108689;28;20087;-63
2022/11/29 11:19:34;;;;;;;19.90;8.52;;;;;;;;;;5102958;28;20165;-64
2022/11/29 11:22:03;;;;;;;19.00;7.93;;;;;;;;;;5107526;28;20070;-64
2022/11/29 11:24:31;;;;;;;22.75;9.45;;;;;;;;;;5111539;28;20359;-64
2022/11/29 11:26:57;;;;;;;21.15;8.93;;;;;;;;;;5106303;28;20603;-64
2022/11/29 11:29:25;;;;;;;21.40;9.05;;;;;;;;;;5101458;28;20372;-64
2022/11/29 11:32:00;;;;;;;23.02;9.02;;;;;;;;;;5102419;28;20101;-64
2022/11/29 11:34:26;;;;;;;20.38;7.97;;;;;;;;;;5110290;28;20037;-63
2022/11/29 11:36:52;;;;;;;15.40;7.78;;;;;;;;;;5108233;28;20462;-64
2022/11/29 11:39:20;;;;;;;20.60;9.50;;;;;;;;;;5109671;28;20078;-64
2022/11/29 11:44:52;;;;;;;26.55;8.55;;;;;;;;;;5111608;28;20578;-64
2022/11/29 11:47:18;;;;;;;21.17;8.48;;;;;;;;;;5092981;28;20544;-64
2022/11/29 11:49:54;;;;;;;24.38;8.38;;;;;;;;;;5111077;28;20047;-64
2022/11/29 11:52:22;;;;;;;20.40;7.63;;;;;;;;;;5111488;28;20047;-64
2022/11/29 11:54:53;;;;;;;19.55;9.05;;;;;;;;;;5109078;28;20594;-64
2022/11/29 11:57:20;;;;;;;24.10;8.75;;;;;;;;;;5104893;28;20043;-64
2022/11/29 11:59:47;;;;;;;24.75;8.73;;;;;;;;;;5110459;28;20046;-64
2022/11/29 12:02:27;;;;;;;22.52;8.57;;;;;;;;;;5110470;28;20047;-64
2022/11/29 12:04:58;;;;;;;20.23;8.45;;;;;;;;;;5109761;28;20044;-63
2022/11/29 12:07:50;;;;;;;26.00;9.23;;;;;;;;;;5091903;28;20143;-64
2022/11/29 12:10:20;;;;;;;23.02;8.52;;;;;;;;;;5106993;28;20131;-64
2022/11/29 12:12:48;;;;;;;23.77;8.77;;;;;;;;;;5110813;28;20044;-64
2022/11/29 12:15:19;;;;;;;18.65;7.88;;;;;;;;;;5105151;28;20067;-63
2022/11/29 12:17:45;;;;;;;23.93;9.20;;;;;;;;;;5109650;28;20058;-63
2022/11/29 12:20:23;;;;;;;23.58;8.98;;;;;;;;;;5110134;28;20266;-63
2022/11/29 12:23:25;;;;;;;27.70;9.20;;;;;;;;;;5106212;28;20036;-63
2022/11/29 12:25:57;;;;;;;30.08;9.13;;;;;;;;;;5026929;28;20384;-63
2022/11/29 12:28:27;;;;;;;29.00;9.77;;;;;;;;;;5092108;28;20054;-63
2022/11/29 12:31:12;;;;;;;32.35;9.52;;;;;;;;;;5105459;28;20046;-64
2022/11/29 12:33:41;;;;;;;24.90;10.18;;;;;;;;;;5105788;28;20032;-63
2022/11/29 12:36:13;;;;;;;23.88;9.45;;;;;;;;;;5103451;28;20023;-64
2022/11/29 12:38:42;;;;;;;32.10;9.98;;;;;;;;;;5100582;28;20042;-64
2022/11/29 12:41:26;;;;;;;19.38;9.00;;;;;;;;;;5102306;28;20124;-64
2022/11/29 12:44:04;;;;;;;30.73;9.70;;;;;;;;;;5091566;28;20451;-63
2022/11/29 12:46:30;;;;;;;29.08;10.18;;;;;;;;;;5100393;28;20044;-63
2022/11/29 12:48:59;;;;;;;28.05;10.60;;;;;;;;;;5104917;28;20078;-63
2022/11/29 12:51:34;;;;;;;35.88;10.40;;;;;;;;;;5095853;28;20036;-62
2022/11/29 12:54:06;;;;;;;30.13;10.50;;;;;;;;;;5106081;28;20043;-62
2022/11/29 12:56:37;;;;;;;31.73;10.40;;;;;;;;;;5099307;28;20135;-62
2022/11/29 12:59:22;;;;;;;32.88;10.93;;;;;;;;;;5100409;28;20048;-63
2022/11/29 13:01:54;;;;;;;33.75;11.00;;;;;;;;;;5100320;28;20036;-63
2022/11/29 13:04:32;;;;;;;35.47;11.65;;;;;;;;;;5101391;28;20055;-63
2022/11/29 13:07:13;;;;;;;34.85;10.90;;;;;;;;;;5104927;28;20040;-63
2022/11/29 13:09:51;;;;;;;28.42;10.88;;;;;;;;;;5098392;28;20092;-63
2022/11/29 13:12:17;;;;;;;29.33;11.35;;;;;;;;;;5090242;28;20085;-63
2022/11/29 13:15:10;;;;;;;33.83;11.65;;;;;;;;;;5101297;28;20470;-63
2022/11/29 13:17:55;;;;;;;38.30;13.30;;;;;;;;;;5097369;28;20056;-64
2022/11/29 13:20:27;;;;;;;32.75;11.20;;;;;;;;;;5092206;28;20123;-64
2022/11/29 13:22:56;;;;;;;32.33;11.77;;;;;;;;;;5097508;28;20040;-63
2022/11/29 13:25:28;;;;;;;33.80;11.05;;;;;;;;;;5100033;28;20616;-63
2022/11/29 13:27:57;;;;;;;30.97;11.40;;;;;;;;;;5104599;28;20040;-64
2022/11/29 13:30:24;;;;;;;30.17;13.00;;;;;;;;;;5101526;28;20319;-64
2022/11/29 13:33:04;;;;;;;31.48;11.23;;;;;;;;;;5093764;28;20040;-64
2022/11/29 13:35:49;;;;;;;27.52;10.77;;;;;;;;;;5094503;28;20067;-63
2022/11/29 13:38:15;;;;;;;30.20;10.52;;;;;;;;;;5092786;28;20042;-64
2022/11/29 13:41:04;;;;;;;23.80;9.95;;;;;;;;;;5089481;28;20487;-64
2022/11/29 13:43:42;;;;;;;23.48;10.05;;;;;;;;;;5082585;28;20060;-64
2022/11/29 13:46:29;;;;;;;28.73;10.38;;;;;;;;;;5094860;28;20036;-63
2022/11/29 13:48:55;;;;;;;27.67;10.85;;;;;;;;;;5100818;28;20032;-62
2022/11/29 13:51:29;;;;;;;28.77;9.98;;;;;;;;;;5112881;28;20047;-63
2022/11/29 13:53:56;;;;;;;31.48;11.10;;;;;;;;;;5109859;28;20039;-62
2022/11/29 13:56:41;;;;;;;27.77;10.65;;;;;;;;;;5107400;28;20381;-63
2022/11/29 13:59:08;;;;;;;25.77;10.32;;;;;;;;;;5111236;28;20043;-63
2022/11/29 14:01:45;;;;;;;25.98;10.60;;;;;;;;;;5091864;28;20402;-64
2022/11/29 14:04:21;;;;;;;24.52;10.77;;;;;;;;;;5106562;28;20082;-64
2022/11/29 14:06:48;;;;;;;30.42;10.20;;;;;;;;;;5113222;28;20039;-63
2022/11/29 14:09:14;;;;;;;24.70;10.10;;;;;;;;;;5112367;28;20393;-63
2022/11/29 14:11:45;;;;;;;26.55;10.35;;;;;;;;;;5095540;28;20049;-63
2022/11/29 14:14:23;;;;;;;27.33;10.93;;;;;;;;;;5108888;28;20561;-64
2022/11/29 14:16:51;;;;;;;17.02;9.25;;;;;;;;;;5097503;28;20705;-64
2022/11/29 14:19:25;;;;;;;24.50;11.15;;;;;;;;;;5100319;28;20093;-64
2022/11/29 14:21:54;;;;;;;20.38;10.68;;;;;;;;;;5109991;28;20054;-63
2022/11/29 14:24:41;;;;;;;20.02;9.65;;;;;;;;;;5111583;28;20119;-62
2022/11/29 14:27:11;;;;;;;16.08;10.27;;;;;;;;;;5109700;28;20059;-62
2022/11/29 14:29:52;;;;;;;18.25;11.00;;;;;;;;;;5103561;28;20055;-62
2022/11/29 14:32:37;;;;;;;15.23;9.95;;;;;;;;;;5112786;28;20098;-62
2022/11/29 14:35:06;;;;;;;15.68;9.85;;;;;;;;;;5113086;28;20047;-62
2022/11/29 14:37:43;;;;;;;13.85;8.95;;;;;;;;;;5103323;28;20066;-62
2022/11/29 14:40:30;;;;;;;14.63;8.40;;;;;;;;;;5104489;28;20047;-62
2022/11/29 14:42:56;;;;;;;11.45;8.07;;;;;;;;;;5094335;28;20056;-62
2022/11/29 14:45:22;;;;;;;16.65;9.60;;;;;;;;;;5094388;28;20044;-62
2022/11/29 14:47:48;;;;;;;17.63;8.07;;;;;;;;;;5112790;28;20481;-66
2022/11/29 14:50:35;;;;;;;13.32;7.90;;;;;;;;;;5106265;28;20397;-67
2022/11/29 14:53:01;;;;;;;10.60;7.93;;;;;;;;;;5092995;28;20406;-66
2022/11/29 14:55:29;;;;;;;13.68;8.75;;;;;;;;;;5110754;28;20056;-66
2022/11/29 14:58:06;;;;;;;10.10;7.57;;;;;;;;;;5114342;28;20051;-66